createdAt,value
2018-05-18T00:01:45.505Z,13.87
2018-05-18T00:04:18.064Z,13.79
2018-05-18T00:06:50.602Z,13.67
2018-05-18T00:09:23.138Z,13.65
2018-05-18T00:11:55.645Z,13.62
2018-05-18T00:14:28.170Z,13.65
2018-05-18T00:17:00.694Z,13.53
2018-05-18T00:19:33.222Z,13.58
2018-05-18T00:22:06.258Z,13.57
2018-05-18T00:24:38.839Z,13.45
2018-05-18T00:27:11.372Z,13.50
2018-05-18T00:29:43.909Z,13.43
2018-05-18T00:32:16.433Z,13.34
2018-05-18T00:34:48.985Z,13.40
2018-05-18T00:37:21.515Z,13.37
2018-05-18T00:39:54.063Z,13.28
2018-05-18T00:42:26.565Z,13.27
2018-05-18T00:44:59.169Z,13.26
2018-05-18T00:47:31.675Z,13.26
2018-05-18T00:50:04.224Z,13.31
2018-05-18T00:52:36.770Z,13.35
2018-05-18T00:55:21.048Z,13.37
2018-05-18T00:57:53.556Z,13.39
2018-05-18T01:00:26.098Z,13.36
2018-05-18T01:02:58.624Z,13.26
2018-05-18T01:05:31.154Z,13.17
2018-05-18T01:08:03.668Z,13.17
2018-05-18T01:10:36.223Z,13.12
2018-05-18T01:13:08.788Z,13.08
2018-05-18T01:15:41.531Z,13.05
2018-05-18T01:18:14.052Z,13.04
2018-05-18T01:20:46.593Z,13.02
2018-05-18T01:23:19.115Z,13.07
2018-05-18T01:25:52.067Z,13.10
2018-05-18T01:28:24.587Z,13.02
2018-05-18T01:30:57.118Z,12.90
2018-05-18T01:33:29.634Z,12.80
2018-05-18T01:36:02.165Z,12.84
2018-05-18T01:38:34.693Z,12.86
2018-05-18T01:41:07.969Z,12.77
2018-05-18T01:43:40.516Z,12.74
2018-05-18T01:46:13.029Z,12.58
2018-05-18T01:48:45.575Z,12.56
2018-05-18T01:51:18.082Z,12.49
2018-05-18T01:53:50.624Z,12.41
2018-05-18T01:56:23.143Z,12.51
2018-05-18T01:58:55.668Z,12.52
2018-05-18T02:01:28.179Z,12.37
2018-05-18T02:04:00.706Z,12.43
2018-05-18T02:06:33.229Z,12.42
2018-05-18T02:09:06.649Z,12.35
2018-05-18T02:11:39.213Z,12.43
2018-05-18T02:14:11.757Z,12.42
2018-05-18T02:16:44.316Z,12.39
2018-05-18T02:19:16.871Z,12.36
2018-05-18T02:21:49.372Z,12.37
2018-05-18T02:24:21.900Z,12.29
2018-05-18T02:26:54.415Z,12.25
2018-05-18T02:29:26.952Z,12.17
2018-05-18T02:31:59.467Z,12.21
2018-05-18T02:34:31.997Z,12.22
2018-05-18T02:37:04.522Z,12.16
2018-05-18T02:39:37.512Z,12.16
2018-05-18T02:42:10.043Z,12.04
2018-05-18T02:44:42.602Z,12.12
2018-05-18T02:47:20.684Z,12.05
2018-05-18T02:49:53.235Z,12.19
2018-05-18T02:52:25.810Z,12.19
2018-05-18T02:54:58.307Z,12.18
2018-05-18T02:57:30.818Z,12.25
2018-05-18T03:00:03.352Z,12.23
2018-05-18T03:02:36.859Z,12.23
2018-05-18T03:05:09.415Z,12.26
2018-05-18T03:07:42.173Z,12.27
2018-05-18T03:10:14.719Z,12.30
2018-05-18T03:12:47.223Z,12.25
2018-05-18T03:15:19.776Z,12.26
2018-05-18T03:17:52.293Z,12.27
2018-05-18T03:20:24.833Z,12.24
2018-05-18T03:22:57.348Z,12.30
2018-05-18T03:25:29.890Z,12.34
2018-05-18T03:28:02.412Z,12.40
2018-05-18T03:30:35.648Z,12.40
2018-05-18T03:33:08.398Z,12.46
2018-05-18T03:35:40.985Z,12.43
2018-05-18T03:38:13.513Z,12.46
2018-05-18T03:40:46.073Z,12.46
2018-05-18T03:43:18.586Z,12.50
2018-05-18T03:45:51.127Z,12.50
2018-05-18T03:48:23.633Z,12.52
2018-05-18T03:50:56.178Z,12.52
2018-05-18T03:53:28.705Z,12.56
2018-05-18T03:56:01.240Z,12.60
2018-05-18T03:58:33.758Z,12.58
2018-05-18T04:01:06.673Z,12.51
2018-05-18T04:03:51.263Z,12.59
2018-05-18T04:06:37.001Z,12.68
2018-05-18T04:09:09.546Z,12.62
2018-05-18T04:11:42.087Z,12.69
2018-05-18T04:14:14.625Z,12.68
2018-05-18T04:16:47.170Z,12.70
2018-05-18T04:19:19.684Z,12.73
2018-05-18T04:21:52.212Z,12.66
2018-05-18T04:24:24.723Z,12.70
2018-05-18T04:26:57.259Z,12.77
2018-05-18T04:29:29.778Z,12.78
2018-05-18T04:32:02.328Z,12.84
2018-05-18T04:34:36.716Z,12.86
2018-05-18T04:37:09.248Z,12.82
2018-05-18T04:39:41.825Z,12.84
2018-05-18T04:42:14.369Z,12.88
2018-05-18T04:44:46.958Z,12.83
2018-05-18T04:47:19.494Z,12.86
2018-05-18T04:49:51.998Z,12.93
2018-05-18T04:52:24.546Z,12.93
2018-05-18T04:54:57.110Z,12.95
2018-05-18T04:57:29.611Z,13.00
2018-05-18T05:00:02.145Z,12.97
2018-05-18T05:02:34.650Z,13.03
2018-05-18T05:05:07.870Z,12.99
2018-05-18T05:07:40.388Z,13.05
2018-05-18T05:10:12.932Z,13.09
2018-05-18T05:12:45.459Z,13.07
2018-05-18T05:15:17.984Z,13.14
2018-05-18T05:17:50.540Z,13.16
2018-05-18T05:20:23.045Z,13.24
2018-05-18T05:22:55.556Z,13.18
2018-05-18T05:25:28.084Z,13.18
2018-05-18T05:28:00.606Z,13.22
2018-05-18T05:30:33.225Z,13.18
2018-05-18T05:33:06.566Z,13.26
2018-05-18T05:35:39.103Z,13.22
2018-05-18T05:38:11.654Z,13.26
2018-05-18T05:40:44.297Z,13.26
2018-05-18T05:43:16.869Z,13.31
2018-05-18T05:45:49.408Z,13.33
2018-05-18T05:48:21.933Z,13.39
2018-05-18T05:50:54.449Z,13.45
2018-05-18T05:53:26.963Z,13.49
2018-05-18T05:55:59.507Z,13.48
2018-05-18T05:58:32.107Z,13.51
2018-05-18T06:01:04.650Z,13.48
2018-05-18T06:03:37.486Z,13.39
2018-05-18T06:06:10.075Z,13.46
2018-05-18T06:08:42.628Z,13.48
2018-05-18T06:11:15.282Z,13.46
2018-05-18T06:16:26.774Z,13.54
2018-05-18T06:18:59.287Z,13.55
2018-05-18T06:21:31.820Z,13.47
2018-05-18T06:24:04.338Z,13.56
2018-05-18T06:26:37.520Z,13.58
2018-05-18T06:29:10.043Z,13.69
2018-05-18T06:31:42.603Z,13.61
2018-05-18T06:34:15.564Z,13.59
2018-05-18T06:36:48.085Z,13.66
2018-05-18T06:39:20.593Z,13.71
2018-05-18T06:41:53.117Z,13.81
2018-05-18T06:44:25.625Z,13.77
2018-05-18T06:46:58.178Z,13.72
2018-05-18T06:49:30.714Z,13.63
2018-05-18T06:52:03.233Z,13.73
2018-05-18T06:54:36.031Z,13.72
2018-05-18T06:57:08.597Z,13.74
2018-05-18T06:59:41.116Z,13.85
2018-05-18T07:02:13.677Z,13.82
2018-05-18T07:04:46.222Z,13.90
2018-05-18T07:07:18.745Z,13.94
2018-05-18T07:09:51.255Z,14.00
2018-05-18T07:12:23.786Z,14.05
2018-05-18T07:14:56.293Z,14.07
2018-05-18T07:17:28.833Z,14.07
2018-05-18T07:20:01.356Z,14.09
2018-05-18T07:22:33.886Z,14.04
2018-05-18T07:25:08.005Z,14.03
2018-05-18T07:27:40.563Z,14.16
2018-05-18T07:30:13.098Z,14.21
2018-05-18T07:32:45.658Z,14.24
2018-05-18T07:35:18.193Z,14.26
2018-05-18T07:37:50.725Z,14.03
2018-05-18T07:40:23.241Z,14.14
2018-05-18T07:42:55.795Z,14.30
2018-05-18T07:45:28.308Z,14.37
2018-05-18T07:48:00.838Z,14.41
2018-05-18T07:50:33.352Z,14.58
2018-05-18T07:53:07.091Z,14.67
2018-05-18T07:55:39.621Z,14.80
2018-05-18T07:58:12.266Z,14.94
2018-05-18T08:00:44.971Z,14.80
2018-05-18T08:03:17.520Z,14.89
2018-05-18T08:05:50.133Z,14.77
2018-05-18T08:08:22.649Z,14.79
2018-05-18T08:10:55.179Z,14.80
2018-05-18T08:13:27.689Z,14.85
2018-05-18T08:16:00.363Z,14.73
2018-05-18T08:18:32.888Z,14.88
2018-05-18T08:21:06.913Z,14.96
2018-05-18T08:23:41.389Z,15.08
2018-05-18T08:26:13.933Z,15.07
2018-05-18T08:28:58.242Z,15.16
2018-05-18T08:31:30.777Z,14.99
2018-05-18T08:34:03.371Z,14.98
2018-05-18T08:36:36.179Z,15.03
2018-05-18T08:39:08.903Z,15.26
2018-05-18T08:41:41.392Z,15.26
2018-05-18T08:44:13.897Z,15.33
2018-05-18T08:46:46.430Z,15.27
2018-05-18T08:49:18.936Z,15.31
2018-05-18T08:51:51.470Z,15.38
2018-05-18T08:54:23.984Z,15.14
2018-05-18T08:56:56.530Z,15.20
2018-05-18T08:59:29.037Z,15.25
2018-05-18T09:02:01.607Z,15.40
2018-05-18T09:04:34.132Z,15.18
2018-05-18T09:07:06.814Z,15.16
2018-05-18T09:09:39.343Z,15.10
2018-05-18T09:12:11.889Z,15.08
2018-05-18T09:14:44.408Z,15.26
2018-05-18T09:17:16.941Z,15.18
2018-05-18T09:19:49.461Z,15.24
2018-05-18T09:22:21.990Z,15.24
2018-05-18T09:24:54.512Z,15.21
2018-05-18T09:27:27.053Z,15.23
2018-05-18T09:29:59.574Z,15.26
2018-05-18T09:32:32.092Z,15.08
2018-05-18T09:35:04.648Z,15.16
2018-05-18T09:37:37.425Z,15.30
2018-05-18T09:40:10.259Z,15.35
2018-05-18T09:42:42.783Z,15.44
2018-05-18T09:45:15.371Z,15.45
2018-05-18T09:47:47.835Z,15.49
2018-05-18T09:50:20.346Z,15.46
2018-05-18T09:52:52.877Z,15.56
2018-05-18T09:55:25.440Z,15.67
2018-05-18T09:57:57.936Z,15.68
2018-05-18T10:00:30.456Z,15.77
2018-05-18T10:03:02.980Z,15.70
2018-05-18T10:05:35.805Z,15.47
2018-05-18T10:08:08.377Z,15.53
2018-05-18T10:10:40.892Z,15.66
2018-05-18T10:13:13.425Z,15.74
2018-05-18T10:15:45.934Z,15.82
2018-05-18T10:18:18.541Z,15.93
2018-05-18T10:20:50.997Z,15.88
2018-05-18T10:23:23.527Z,15.94
2018-05-18T10:25:56.040Z,16.01
2018-05-18T10:28:28.568Z,15.93
2018-05-18T10:31:01.095Z,16.04
2018-05-18T10:33:33.636Z,16.12
2018-05-18T10:36:06.180Z,16.29
2018-05-18T10:38:38.727Z,16.30
2018-05-18T10:41:11.252Z,16.53
2018-05-18T10:43:43.790Z,16.58
2018-05-18T10:46:16.298Z,16.49
2018-05-18T10:48:48.828Z,16.41
2018-05-18T10:51:21.339Z,16.41
2018-05-18T10:53:53.870Z,16.52
2018-05-18T10:56:26.381Z,16.47
2018-05-18T10:58:58.923Z,16.52
2018-05-18T11:01:31.447Z,16.58
2018-05-18T11:04:03.971Z,16.51
2018-05-18T11:06:36.597Z,16.56
2018-05-18T11:09:09.238Z,16.25
2018-05-18T11:11:42.083Z,16.20
2018-05-18T11:14:14.640Z,16.16
2018-05-18T11:16:47.095Z,16.15
2018-05-18T11:19:19.625Z,16.33
2018-05-18T11:21:52.138Z,16.29
2018-05-18T11:24:24.675Z,16.37
2018-05-18T11:26:57.225Z,16.48
2018-05-18T11:29:29.749Z,16.48
2018-05-18T11:32:02.280Z,16.58
2018-05-18T11:34:34.820Z,16.54
2018-05-18T11:37:07.466Z,16.50
2018-05-18T11:39:40.005Z,16.70
2018-05-18T11:42:12.545Z,16.60
2018-05-18T11:44:45.095Z,16.76
2018-05-18T11:47:17.687Z,17.01
2018-05-18T11:49:50.196Z,17.05
2018-05-18T11:52:22.732Z,17.02
2018-05-18T11:54:55.249Z,16.70
2018-05-18T11:57:27.969Z,16.68
2018-05-18T12:00:00.544Z,16.87
2018-05-18T12:02:33.318Z,16.88
2018-05-18T12:05:06.577Z,17.01
2018-05-18T12:07:39.200Z,17.11
2018-05-18T12:10:11.857Z,17.14
2018-05-18T12:12:44.395Z,17.14
2018-05-18T12:15:16.963Z,17.19
2018-05-18T12:17:49.550Z,17.10
2018-05-18T12:20:22.082Z,17.04
2018-05-18T12:22:54.613Z,17.05
2018-05-18T12:25:27.122Z,16.79
2018-05-18T12:27:59.649Z,16.85
2018-05-18T12:30:32.531Z,16.87
2018-05-18T12:33:05.189Z,16.73
2018-05-18T12:35:38.013Z,16.63
2018-05-18T12:38:10.743Z,16.80
2018-05-18T12:40:43.219Z,16.80
2018-05-18T12:43:15.751Z,16.77
2018-05-18T12:45:48.300Z,16.84
2018-05-18T12:48:20.825Z,16.65
2018-05-18T12:50:53.478Z,16.74
2018-05-18T12:53:26.007Z,16.78
2018-05-18T12:55:58.541Z,16.84
2018-05-18T12:58:31.065Z,16.78
2018-05-18T13:01:03.587Z,16.72
2018-05-18T13:03:36.159Z,16.54
2018-05-18T13:06:09.821Z,16.53
2018-05-18T13:08:42.883Z,16.59
2018-05-18T13:11:15.653Z,16.62
2018-05-18T13:13:48.243Z,16.70
2018-05-18T13:16:21.052Z,16.70
2018-05-18T13:18:53.634Z,16.69
2018-05-18T13:21:26.150Z,16.68
2018-05-18T13:23:58.677Z,16.58
2018-05-18T13:26:31.279Z,16.46
2018-05-18T13:29:03.826Z,16.43
2018-05-18T13:31:36.691Z,16.52
2018-05-18T13:34:09.220Z,16.51
2018-05-18T13:36:41.745Z,16.46
2018-05-18T13:39:14.298Z,16.48
2018-05-18T13:41:46.813Z,16.48
2018-05-18T13:44:19.376Z,16.56
2018-05-18T13:46:51.899Z,16.63
2018-05-18T13:49:25.060Z,16.58
2018-05-18T13:51:57.597Z,16.57
2018-05-18T13:54:30.169Z,16.74
2018-05-18T13:57:02.770Z,16.87
2018-05-18T13:59:36.211Z,16.88
2018-05-18T14:02:08.736Z,16.85
2018-05-18T14:04:41.681Z,16.86
2018-05-18T14:07:14.188Z,16.93
2018-05-18T14:09:46.784Z,16.93
2018-05-18T14:12:19.308Z,16.92
2018-05-18T14:14:51.833Z,16.96
2018-05-18T14:17:24.349Z,17.03
2018-05-18T14:19:56.887Z,17.07
2018-05-18T14:22:29.393Z,17.08
2018-05-18T14:25:01.929Z,17.11
2018-05-18T14:27:34.478Z,17.08
2018-05-18T14:30:07.153Z,17.12
2018-05-18T14:32:39.828Z,17.06
2018-05-18T14:35:12.906Z,17.12
2018-05-18T14:37:45.470Z,17.16
2018-05-18T14:40:17.981Z,17.10
2018-05-18T14:42:50.527Z,17.14
2018-05-18T14:45:23.067Z,17.16
2018-05-18T14:47:55.580Z,17.18
2018-05-18T14:50:28.121Z,17.08
2018-05-18T14:53:00.645Z,17.14
2018-05-18T14:55:33.460Z,17.19
2018-05-18T14:58:06.729Z,17.22
2018-05-18T15:00:39.281Z,17.16
2018-05-18T15:03:12.030Z,17.16
2018-05-18T15:05:44.930Z,17.21
2018-05-18T15:08:17.653Z,17.27
2018-05-18T15:10:50.375Z,17.16
2018-05-18T15:13:22.857Z,17.16
2018-05-18T15:15:55.374Z,17.14
2018-05-18T15:18:27.904Z,17.15
2018-05-18T15:21:00.412Z,17.14
2018-05-18T15:23:32.963Z,17.22
2018-05-18T15:26:05.684Z,17.10
2018-05-18T15:28:38.723Z,17.14
2018-05-18T15:31:11.193Z,17.17
2018-05-18T15:33:44.049Z,17.16
2018-05-18T15:36:16.582Z,17.12
2018-05-18T15:38:49.113Z,16.98
2018-05-18T15:41:21.634Z,17.06
2018-05-18T15:43:54.169Z,17.11
2018-05-18T15:46:26.689Z,17.10
2018-05-18T15:48:59.218Z,17.12
2018-05-18T15:51:31.781Z,17.07
2018-05-18T15:54:04.337Z,17.04
2018-05-18T15:56:37.228Z,17.07
2018-05-18T15:59:09.784Z,17.05
2018-05-18T16:01:42.352Z,17.05
2018-05-18T16:04:14.902Z,17.08
2018-05-18T16:06:47.500Z,17.12
2018-05-18T16:09:20.047Z,17.14
2018-05-18T16:11:52.552Z,17.20
2018-05-18T16:14:25.129Z,17.24
2018-05-18T16:16:57.673Z,17.25
2018-05-18T16:19:30.214Z,17.34
2018-05-18T16:22:02.725Z,17.38
2018-05-18T16:24:35.291Z,17.41
2018-05-18T16:27:07.858Z,17.38
2018-05-18T16:29:40.501Z,17.38
2018-05-18T16:32:13.015Z,17.32
2018-05-18T16:34:45.549Z,17.25
2018-05-18T16:37:18.069Z,17.22
2018-05-18T16:39:50.593Z,17.25
2018-05-18T16:42:23.100Z,17.24
2018-05-18T16:44:55.621Z,17.21
2018-05-18T16:47:28.135Z,17.17
2018-05-18T16:50:00.668Z,17.18
2018-05-18T16:52:33.179Z,17.14
2018-05-18T16:55:05.805Z,17.17
2018-05-18T16:57:38.340Z,17.15
2018-05-18T17:00:10.939Z,17.14
2018-05-18T17:05:22.436Z,17.20
2018-05-18T17:07:54.937Z,17.25
2018-05-18T17:10:27.462Z,17.25
2018-05-18T17:12:59.977Z,17.31
2018-05-18T17:15:32.504Z,17.34
2018-05-18T17:18:05.045Z,17.40
2018-05-18T17:20:37.688Z,17.38
2018-05-18T17:23:10.356Z,17.43
2018-05-18T17:25:42.906Z,17.44
2018-05-18T17:28:15.414Z,17.36
2018-05-18T17:30:47.955Z,17.35
2018-05-18T17:33:20.461Z,17.35
2018-05-18T17:35:52.993Z,17.34
2018-05-18T17:38:25.498Z,17.23
2018-05-18T17:40:58.024Z,17.19
2018-05-18T17:43:30.528Z,17.20
2018-05-18T17:46:03.064Z,17.17
2018-05-18T17:48:35.600Z,17.18
2018-05-18T17:51:08.340Z,17.21
2018-05-18T17:53:40.873Z,17.17
2018-05-18T17:56:13.413Z,17.12
2018-05-18T17:58:45.913Z,17.11
2018-05-18T18:01:18.454Z,17.08
2018-05-18T18:03:51.218Z,17.07
2018-05-18T18:06:23.755Z,17.00
2018-05-18T18:08:56.284Z,16.99
2018-05-18T18:11:28.822Z,17.01
2018-05-18T18:14:01.356Z,17.02
2018-05-18T18:16:33.877Z,16.99
2018-05-18T18:19:07.272Z,16.98
2018-05-18T18:21:39.840Z,16.97
2018-05-18T18:24:12.430Z,16.94
2018-05-18T18:26:44.949Z,16.92
2018-05-18T18:29:17.489Z,16.90
2018-05-18T18:31:50.001Z,16.87
2018-05-18T18:34:22.535Z,16.82
2018-05-18T18:36:55.075Z,16.76
2018-05-18T18:39:27.606Z,16.73
2018-05-18T18:42:00.123Z,16.70
2018-05-18T18:44:32.676Z,16.66
2018-05-18T18:47:06.387Z,16.61
2018-05-18T18:49:38.959Z,16.56
2018-05-18T18:52:11.607Z,16.49
2018-05-18T18:54:44.034Z,16.44
2018-05-18T18:57:16.585Z,16.39
2018-05-18T18:59:49.120Z,16.34
2018-05-18T19:02:21.633Z,16.27
2018-05-18T19:04:54.173Z,16.19
2018-05-18T19:07:26.678Z,16.15
2018-05-18T19:09:59.215Z,16.10
2018-05-18T19:12:31.732Z,16.03
2018-05-18T19:15:04.329Z,15.95
2018-05-18T19:17:37.344Z,15.91
2018-05-18T19:20:09.910Z,15.87
2018-05-18T19:22:42.412Z,15.82
2018-05-18T19:25:14.954Z,15.81
2018-05-18T19:27:47.460Z,15.76
2018-05-18T19:30:19.993Z,15.73
2018-05-18T19:32:52.502Z,15.70
2018-05-18T19:35:25.025Z,15.63
2018-05-18T19:37:57.538Z,15.58
2018-05-18T19:40:30.076Z,15.57
2018-05-18T19:43:02.580Z,15.50
2018-05-18T19:45:35.175Z,15.44
2018-05-18T19:48:07.853Z,15.40
2018-05-18T19:50:40.489Z,15.34
2018-05-18T19:53:13.021Z,15.32
2018-05-18T19:55:45.542Z,15.29
2018-05-18T19:58:18.041Z,15.26
2018-05-18T20:00:50.572Z,15.23
2018-05-18T20:03:23.079Z,15.20
2018-05-18T20:05:55.606Z,15.15
2018-05-18T20:08:28.112Z,15.15
2018-05-18T20:11:00.647Z,15.11
2018-05-18T20:13:33.166Z,15.10
2018-05-18T20:16:05.700Z,15.09
2018-05-18T20:18:38.456Z,15.07
2018-05-18T20:21:11.014Z,15.04
2018-05-18T20:23:43.525Z,15.03
2018-05-18T20:26:16.052Z,15.01
2018-05-18T20:28:48.561Z,15.03
2018-05-18T20:31:21.093Z,15.04
2018-05-18T20:33:53.599Z,15.02
2018-05-18T20:36:26.135Z,15.02
2018-05-18T20:38:58.689Z,15.00
2018-05-18T20:41:31.221Z,14.97
2018-05-18T20:44:03.738Z,15.00
2018-05-18T20:46:36.289Z,14.99
2018-05-18T20:49:08.865Z,15.02
2018-05-18T20:51:41.434Z,15.02
2018-05-18T20:54:13.948Z,15.03
2018-05-18T20:56:46.476Z,15.02
2018-05-18T20:59:18.977Z,15.00
2018-05-18T21:01:51.500Z,15.00
2018-05-18T21:04:24.010Z,14.98
2018-05-18T21:06:56.533Z,14.97
2018-05-18T21:09:29.033Z,14.98
2018-05-18T21:12:01.606Z,14.98
2018-05-18T21:14:34.110Z,15.00
2018-05-18T21:17:07.144Z,14.98
2018-05-18T21:19:39.658Z,14.96
2018-05-18T21:22:12.180Z,14.98
2018-05-18T21:24:44.681Z,14.98
2018-05-18T21:27:17.205Z,14.97
2018-05-18T21:29:49.712Z,15.01
2018-05-18T21:32:22.256Z,15.01
2018-05-18T21:34:54.764Z,15.02
2018-05-18T21:37:27.295Z,15.04
2018-05-18T21:39:59.811Z,15.05
2018-05-18T21:42:32.347Z,15.07
2018-05-18T21:45:05.673Z,15.07
2018-05-18T21:47:38.245Z,15.07
2018-05-18T21:50:10.798Z,15.06
2018-05-18T21:52:43.425Z,15.06
2018-05-18T21:55:15.997Z,15.06
2018-05-18T21:57:48.515Z,15.05
2018-05-18T22:00:21.048Z,15.03
2018-05-18T22:02:53.552Z,15.06
2018-05-18T22:05:26.088Z,15.07
2018-05-18T22:07:58.590Z,15.06
2018-05-18T22:10:31.131Z,15.08
2018-05-18T22:13:03.643Z,15.08
2018-05-18T22:15:36.549Z,15.08
2018-05-18T22:18:09.108Z,15.07
2018-05-18T22:20:41.646Z,15.06
2018-05-18T22:23:14.194Z,15.09
2018-05-18T22:25:46.772Z,15.10
2018-05-18T22:28:19.289Z,15.10
2018-05-18T22:30:51.831Z,15.10
2018-05-18T22:33:24.356Z,15.12
2018-05-18T22:35:57.040Z,15.12
2018-05-18T22:38:29.516Z,15.13
2018-05-18T22:41:02.121Z,15.08
2018-05-18T22:43:35.185Z,15.10
2018-05-18T22:46:08.027Z,15.07
2018-05-18T22:48:40.597Z,15.09
2018-05-18T22:51:13.194Z,15.08
2018-05-18T22:53:45.763Z,15.08
2018-05-18T22:56:18.395Z,15.08
2018-05-18T22:58:50.954Z,15.09
2018-05-18T23:01:23.487Z,15.09
2018-05-18T23:03:55.998Z,15.06
2018-05-18T23:06:28.525Z,15.05
2018-05-18T23:09:01.051Z,15.01
2018-05-18T23:11:33.657Z,15.03
2018-05-18T23:14:06.443Z,15.01
2018-05-18T23:16:39.060Z,15.00
2018-05-18T23:19:11.585Z,14.98
2018-05-18T23:21:44.344Z,14.96
2018-05-18T23:24:16.849Z,14.95
2018-05-18T23:26:49.373Z,14.97
2018-05-18T23:29:21.868Z,14.95
2018-05-18T23:31:54.486Z,14.97
2018-05-18T23:34:26.948Z,14.97
2018-05-18T23:36:59.477Z,14.97
2018-05-18T23:39:32.038Z,14.97
2018-05-18T23:42:04.675Z,14.99
2018-05-18T23:44:38.292Z,14.98
2018-05-18T23:47:10.938Z,15.01
2018-05-18T23:49:43.493Z,14.99
2018-05-18T23:52:16.075Z,15.00
2018-05-18T23:54:48.616Z,15.00
2018-05-18T23:57:26.678Z,14.99
2018-05-18T23:59:59.194Z,14.95
